Delavan, Minnesota
Current Conditions -  °F | °C
As of 12:35 AM on Wednesday 28 Jan 2015 (Local Time) from KFRM Reporting Station
Overcast Overcast  
Wind Chill: 18°   Ceiling: 600
Heat Index: 30°   Visibility: 7mi
Dew Point: 27°   Wind: 18mph
Humidity: 86%   Direction: 150°SSE
Pressure: 30.03"   Gusts: NA
Location:  43.77°N, 94.02°W
Report Text: KFRM 280635Z AUTO 15016KT 7SM OVC006 M01/M03 A3003 RMK AO1
Loading
Personal Weather Stations






























Interactive Weather Map New forecast layout! Learn more

10-Day Weather Forecast

Advertisements
Track Severe Weather on mobile